sensor_id;sensor_type;location;lat;lon;timestamp;P1;durP1;ratioP1;P2;durP2;ratioP2
11506;SDS011;5810;51.180;6.646;2023-09-07T00:01:47;1.90;;;1.80;;
11506;SDS011;5810;51.180;6.646;2023-09-07T00:04:13;1.10;;;1.10;;
11506;SDS011;5810;51.180;6.646;2023-09-07T00:06:42;8.00;;;1.40;;
11506;SDS011;5810;51.180;6.646;2023-09-07T00:09:08;2.13;;;1.92;;
11506;SDS011;5810;51.180;6.646;2023-09-07T00:11:36;2.35;;;2.15;;
11506;SDS011;5810;51.180;6.646;2023-09-07T00:14:02;2.03;;;1.77;;
11506;SDS011;5810;51.180;6.646;2023-09-07T00:16:31;1.95;;;1.50;;
11506;SDS011;5810;51.180;6.646;2023-09-07T00:18:59;1.63;;;1.52;;
11506;SDS011;5810;51.180;6.646;2023-09-07T00:21:25;2.55;;;1.63;;
11506;SDS011;5810;51.180;6.646;2023-09-07T00:23:51;1.63;;;1.52;;
11506;SDS011;5810;51.180;6.646;2023-09-07T00:26:17;2.13;;;1.30;;
11506;SDS011;5810;51.180;6.646;2023-09-07T00:28:43;1.23;;;1.13;;
11506;SDS011;5810;51.180;6.646;2023-09-07T00:31:09;1.60;;;1.50;;
11506;SDS011;5810;51.180;6.646;2023-09-07T00:33:35;1.92;;;1.73;;
11506;SDS011;5810;51.180;6.646;2023-09-07T00:36:02;1.75;;;1.65;;
11506;SDS011;5810;51.180;6.646;2023-09-07T00:38:28;1.30;;;1.30;;
11506;SDS011;5810;51.180;6.646;2023-09-07T00:40:54;5.15;;;1.63;;
11506;SDS011;5810;51.180;6.646;2023-09-07T00:43:20;2.30;;;1.80;;
11506;SDS011;5810;51.180;6.646;2023-09-07T00:45:46;1.98;;;1.50;;
11506;SDS011;5810;51.180;6.646;2023-09-07T00:48:13;1.20;;;1.20;;
11506;SDS011;5810;51.180;6.646;2023-09-07T00:50:39;1.73;;;1.58;;
11506;SDS011;5810;51.180;6.646;2023-09-07T00:53:06;1.35;;;1.30;;
11506;SDS011;5810;51.180;6.646;2023-09-07T00:55:33;3.90;;;2.38;;
11506;SDS011;5810;51.180;6.646;2023-09-07T00:58:00;2.03;;;1.30;;
11506;SDS011;5810;51.180;6.646;2023-09-07T01:00:28;4.20;;;1.73;;
11506;SDS011;5810;51.180;6.646;2023-09-07T01:02:54;2.67;;;2.15;;
11506;SDS011;5810;51.180;6.646;2023-09-07T01:05:21;2.03;;;1.48;;
11506;SDS011;5810;51.180;6.646;2023-09-07T01:07:52;1.88;;;1.67;;
11506;SDS011;5810;51.180;6.646;2023-09-07T01:10:19;1.67;;;1.58;;
11506;SDS011;5810;51.180;6.646;2023-09-07T01:12:47;1.88;;;1.45;;
11506;SDS011;5810;51.180;6.646;2023-09-07T01:15:13;3.15;;;1.25;;
11506;SDS011;5810;51.180;6.646;2023-09-07T01:17:39;1.10;;;0.93;;
11506;SDS011;5810;51.180;6.646;2023-09-07T01:20:06;1.20;;;1.10;;
11506;SDS011;5810;51.180;6.646;2023-09-07T01:22:34;2.15;;;1.63;;
11506;SDS011;5810;51.180;6.646;2023-09-07T01:25:01;2.47;;;2.28;;
11506;SDS011;5810;51.180;6.646;2023-09-07T01:27:28;1.30;;;1.20;;
11506;SDS011;5810;51.180;6.646;2023-09-07T01:29:54;10.43;;;1.40;;
11506;SDS011;5810;51.180;6.646;2023-09-07T01:32:20;4.40;;;1.88;;
11506;SDS011;5810;51.180;6.646;2023-09-07T01:34:46;1.98;;;1.33;;
11506;SDS011;5810;51.180;6.646;2023-09-07T01:37:12;1.35;;;1.25;;
11506;SDS011;5810;51.180;6.646;2023-09-07T01:39:38;9.75;;;1.33;;
11506;SDS011;5810;51.180;6.646;2023-09-07T01:42:04;1.35;;;1.35;;
11506;SDS011;5810;51.180;6.646;2023-09-07T01:44:30;1.65;;;1.55;;
11506;SDS011;5810;51.180;6.646;2023-09-07T01:46:56;0.82;;;0.82;;
11506;SDS011;5810;51.180;6.646;2023-09-07T01:49:22;4.20;;;1.58;;
11506;SDS011;5810;51.180;6.646;2023-09-07T01:51:50;1.65;;;1.48;;
11506;SDS011;5810;51.180;6.646;2023-09-07T01:54:17;1.35;;;1.10;;
11506;SDS011;5810;51.180;6.646;2023-09-07T01:56:43;1.70;;;1.60;;
11506;SDS011;5810;51.180;6.646;2023-09-07T01:59:09;1.45;;;1.35;;
11506;SDS011;5810;51.180;6.646;2023-09-07T02:01:37;1.73;;;1.63;;
11506;SDS011;5810;51.180;6.646;2023-09-07T02:04:04;0.98;;;0.98;;
11506;SDS011;5810;51.180;6.646;2023-09-07T02:06:30;2.53;;;1.20;;
11506;SDS011;5810;51.180;6.646;2023-09-07T02:08:56;2.88;;;1.50;;
11506;SDS011;5810;51.180;6.646;2023-09-07T02:11:22;1.55;;;1.42;;
11506;SDS011;5810;51.180;6.646;2023-09-07T02:13:48;2.75;;;1.50;;
11506;SDS011;5810;51.180;6.646;2023-09-07T02:16:14;1.42;;;1.30;;
11506;SDS011;5810;51.180;6.646;2023-09-07T02:18:41;1.23;;;1.20;;
11506;SDS011;5810;51.180;6.646;2023-09-07T02:21:10;1.38;;;1.27;;
11506;SDS011;5810;51.180;6.646;2023-09-07T02:23:36;2.25;;;1.55;;
11506;SDS011;5810;51.180;6.646;2023-09-07T02:26:03;1.17;;;1.17;;
11506;SDS011;5810;51.180;6.646;2023-09-07T02:28:29;1.85;;;1.00;;
11506;SDS011;5810;51.180;6.646;2023-09-07T02:31:01;1.42;;;1.33;;
11506;SDS011;5810;51.180;6.646;2023-09-07T02:33:27;1.35;;;0.98;;
11506;SDS011;5810;51.180;6.646;2023-09-07T02:35:53;0.93;;;0.93;;
11506;SDS011;5810;51.180;6.646;2023-09-07T02:38:19;1.48;;;1.38;;
11506;SDS011;5810;51.180;6.646;2023-09-07T02:40:45;1.10;;;1.10;;
11506;SDS011;5810;51.180;6.646;2023-09-07T02:43:12;1.50;;;1.40;;
11506;SDS011;5810;51.180;6.646;2023-09-07T02:45:38;1.20;;;1.20;;
11506;SDS011;5810;51.180;6.646;2023-09-07T02:48:04;1.15;;;1.05;;
11506;SDS011;5810;51.180;6.646;2023-09-07T02:50:32;3.70;;;1.15;;
11506;SDS011;5810;51.180;6.646;2023-09-07T02:52:58;1.40;;;1.30;;
11506;SDS011;5810;51.180;6.646;2023-09-07T02:55:25;1.48;;;1.42;;
11506;SDS011;5810;51.180;6.646;2023-09-07T02:57:51;1.20;;;1.10;;
11506;SDS011;5810;51.180;6.646;2023-09-07T03:00:17;0.65;;;0.65;;
11506;SDS011;5810;51.180;6.646;2023-09-07T03:02:43;1.00;;;1.00;;
11506;SDS011;5810;51.180;6.646;2023-09-07T03:05:10;1.75;;;1.25;;
11506;SDS011;5810;51.180;6.646;2023-09-07T03:07:36;4.07;;;1.92;;
11506;SDS011;5810;51.180;6.646;2023-09-07T03:10:04;1.00;;;1.00;;
11506;SDS011;5810;51.180;6.646;2023-09-07T03:12:30;2.10;;;1.83;;
11506;SDS011;5810;51.180;6.646;2023-09-07T03:14:56;1.15;;;1.15;;
11506;SDS011;5810;51.180;6.646;2023-09-07T03:17:22;2.03;;;1.92;;
11506;SDS011;5810;51.180;6.646;2023-09-07T03:19:48;3.85;;;1.92;;
11506;SDS011;5810;51.180;6.646;2023-09-07T03:22:14;7.80;;;0.95;;
11506;SDS011;5810;51.180;6.646;2023-09-07T03:24:40;4.63;;;1.10;;
11506;SDS011;5810;51.180;6.646;2023-09-07T03:27:06;1.38;;;1.27;;
11506;SDS011;5810;51.180;6.646;2023-09-07T03:29:32;2.00;;;1.20;;
11506;SDS011;5810;51.180;6.646;2023-09-07T03:32:00;2.00;;;1.75;;
11506;SDS011;5810;51.180;6.646;2023-09-07T03:34:26;3.15;;;1.17;;
11506;SDS011;5810;51.180;6.646;2023-09-07T03:36:52;1.02;;;1.02;;
11506;SDS011;5810;51.180;6.646;2023-09-07T03:39:18;0.80;;;0.80;;
11506;SDS011;5810;51.180;6.646;2023-09-07T03:41:47;2.50;;;1.30;;
11506;SDS011;5810;51.180;6.646;2023-09-07T03:44:13;1.40;;;1.30;;
11506;SDS011;5810;51.180;6.646;2023-09-07T03:46:39;2.40;;;1.80;;
11506;SDS011;5810;51.180;6.646;2023-09-07T03:49:05;1.23;;;1.20;;
11506;SDS011;5810;51.180;6.646;2023-09-07T03:51:31;2.25;;;1.80;;
11506;SDS011;5810;51.180;6.646;2023-09-07T03:53:57;2.13;;;1.52;;
11506;SDS011;5810;51.180;6.646;2023-09-07T03:56:24;1.17;;;1.15;;
11506;SDS011;5810;51.180;6.646;2023-09-07T03:58:50;1.10;;;1.10;;
11506;SDS011;5810;51.180;6.646;2023-09-07T04:01:16;2.03;;;1.10;;
11506;SDS011;5810;51.180;6.646;2023-09-07T04:03:42;1.52;;;0.90;;
11506;SDS011;5810;51.180;6.646;2023-09-07T04:06:08;1.25;;;0.95;;
11506;SDS011;5810;51.180;6.646;2023-09-07T04:08:34;2.30;;;1.13;;
11506;SDS011;5810;51.180;6.646;2023-09-07T04:11:06;1.23;;;1.02;;
11506;SDS011;5810;51.180;6.646;2023-09-07T04:13:32;1.20;;;1.10;;
11506;SDS011;5810;51.180;6.646;2023-09-07T04:15:58;1.27;;;0.90;;
11506;SDS011;5810;51.180;6.646;2023-09-07T04:18:24;1.17;;;0.93;;
11506;SDS011;5810;51.180;6.646;2023-09-07T04:20:50;0.80;;;0.80;;
11506;SDS011;5810;51.180;6.646;2023-09-07T04:23:16;1.42;;;1.25;;
11506;SDS011;5810;51.180;6.646;2023-09-07T04:25:42;1.00;;;0.90;;
11506;SDS011;5810;51.180;6.646;2023-09-07T04:28:08;1.20;;;1.10;;
11506;SDS011;5810;51.180;6.646;2023-09-07T04:30:38;0.82;;;0.82;;
11506;SDS011;5810;51.180;6.646;2023-09-07T04:33:04;1.20;;;1.10;;
11506;SDS011;5810;51.180;6.646;2023-09-07T04:35:30;1.38;;;0.98;;
11506;SDS011;5810;51.180;6.646;2023-09-07T04:37:57;1.42;;;1.33;;
11506;SDS011;5810;51.180;6.646;2023-09-07T04:40:24;1.92;;;1.00;;
11506;SDS011;5810;51.180;6.646;2023-09-07T04:42:50;0.90;;;0.90;;
11506;SDS011;5810;51.180;6.646;2023-09-07T04:45:16;0.80;;;0.80;;
11506;SDS011;5810;51.180;6.646;2023-09-07T04:47:42;2.08;;;1.27;;
11506;SDS011;5810;51.180;6.646;2023-09-07T04:50:08;9.20;;;1.13;;
11506;SDS011;5810;51.180;6.646;2023-09-07T04:52:34;1.05;;;1.05;;
11506;SDS011;5810;51.180;6.646;2023-09-07T04:55:01;0.93;;;0.90;;
11506;SDS011;5810;51.180;6.646;2023-09-07T04:57:27;0.80;;;0.80;;
11506;SDS011;5810;51.180;6.646;2023-09-07T04:59:52;0.98;;;0.95;;
11506;SDS011;5810;51.180;6.646;2023-09-07T05:02:18;0.70;;;0.70;;
11506;SDS011;5810;51.180;6.646;2023-09-07T05:04:44;2.00;;;1.35;;
11506;SDS011;5810;51.180;6.646;2023-09-07T05:07:10;2.10;;;1.25;;
11506;SDS011;5810;51.180;6.646;2023-09-07T05:09:37;0.90;;;0.90;;
11506;SDS011;5810;51.180;6.646;2023-09-07T05:12:03;1.80;;;1.55;;
11506;SDS011;5810;51.180;6.646;2023-09-07T05:14:29;0.88;;;0.88;;
11506;SDS011;5810;51.180;6.646;2023-09-07T05:16:55;1.20;;;1.10;;
11506;SDS011;5810;51.180;6.646;2023-09-07T05:19:22;1.00;;;1.00;;
11506;SDS011;5810;51.180;6.646;2023-09-07T05:21:48;0.88;;;0.88;;
11506;SDS011;5810;51.180;6.646;2023-09-07T05:24:14;0.95;;;0.95;;
11506;SDS011;5810;51.180;6.646;2023-09-07T05:26:43;1.45;;;1.17;;
11506;SDS011;5810;51.180;6.646;2023-09-07T05:29:11;0.90;;;0.85;;
11506;SDS011;5810;51.180;6.646;2023-09-07T05:31:37;1.73;;;0.90;;
11506;SDS011;5810;51.180;6.646;2023-09-07T05:34:03;0.95;;;0.95;;
11506;SDS011;5810;51.180;6.646;2023-09-07T05:36:29;1.75;;;1.17;;
11506;SDS011;5810;51.180;6.646;2023-09-07T05:38:55;6.53;;;1.85;;
11506;SDS011;5810;51.180;6.646;2023-09-07T05:41:21;1.20;;;1.15;;
11506;SDS011;5810;51.180;6.646;2023-09-07T05:43:47;1.23;;;1.23;;
11506;SDS011;5810;51.180;6.646;2023-09-07T05:46:14;4.45;;;0.98;;
11506;SDS011;5810;51.180;6.646;2023-09-07T05:48:40;0.65;;;0.65;;
11506;SDS011;5810;51.180;6.646;2023-09-07T05:51:06;1.45;;;1.35;;
11506;SDS011;5810;51.180;6.646;2023-09-07T05:53:32;0.60;;;0.60;;
11506;SDS011;5810;51.180;6.646;2023-09-07T05:55:58;0.70;;;0.70;;
11506;SDS011;5810;51.180;6.646;2023-09-07T05:58:24;1.27;;;1.17;;
11506;SDS011;5810;51.180;6.646;2023-09-07T06:00:50;1.15;;;1.15;;
11506;SDS011;5810;51.180;6.646;2023-09-07T06:03:16;0.88;;;0.88;;
11506;SDS011;5810;51.180;6.646;2023-09-07T06:05:42;0.50;;;0.50;;
11506;SDS011;5810;51.180;6.646;2023-09-07T06:08:09;1.00;;;1.00;;
11506;SDS011;5810;51.180;6.646;2023-09-07T06:10:35;1.08;;;1.00;;
11506;SDS011;5810;51.180;6.646;2023-09-07T06:13:01;0.85;;;0.85;;
11506;SDS011;5810;51.180;6.646;2023-09-07T06:15:28;2.20;;;1.35;;
11506;SDS011;5810;51.180;6.646;2023-09-07T06:17:54;1.15;;;1.05;;
11506;SDS011;5810;51.180;6.646;2023-09-07T06:20:20;2.33;;;1.17;;
11506;SDS011;5810;51.180;6.646;2023-09-07T06:22:46;0.70;;;0.70;;
11506;SDS011;5810;51.180;6.646;2023-09-07T06:25:14;1.02;;;0.90;;
11506;SDS011;5810;51.180;6.646;2023-09-07T06:27:40;0.77;;;0.77;;
11506;SDS011;5810;51.180;6.646;2023-09-07T06:30:06;0.70;;;0.70;;
11506;SDS011;5810;51.180;6.646;2023-09-07T06:32:32;0.65;;;0.65;;
11506;SDS011;5810;51.180;6.646;2023-09-07T06:34:58;0.65;;;0.65;;
11506;SDS011;5810;51.180;6.646;2023-09-07T06:37:24;4.38;;;0.88;;
11506;SDS011;5810;51.180;6.646;2023-09-07T06:39:50;0.73;;;0.73;;
11506;SDS011;5810;51.180;6.646;2023-09-07T06:42:16;0.95;;;0.95;;
11506;SDS011;5810;51.180;6.646;2023-09-07T06:44:43;0.82;;;0.82;;
11506;SDS011;5810;51.180;6.646;2023-09-07T06:47:10;0.70;;;0.60;;
11506;SDS011;5810;51.180;6.646;2023-09-07T06:49:37;0.95;;;0.95;;
11506;SDS011;5810;51.180;6.646;2023-09-07T06:52:03;0.80;;;0.80;;
11506;SDS011;5810;51.180;6.646;2023-09-07T06:54:29;0.63;;;0.63;;
11506;SDS011;5810;51.180;6.646;2023-09-07T06:56:55;0.95;;;0.95;;
11506;SDS011;5810;51.180;6.646;2023-09-07T06:59:21;0.75;;;0.75;;
11506;SDS011;5810;51.180;6.646;2023-09-07T07:01:47;1.25;;;1.17;;
11506;SDS011;5810;51.180;6.646;2023-09-07T07:04:13;0.60;;;0.60;;
11506;SDS011;5810;51.180;6.646;2023-09-07T07:06:39;1.30;;;1.23;;
11506;SDS011;5810;51.180;6.646;2023-09-07T07:09:05;0.90;;;0.70;;
11506;SDS011;5810;51.180;6.646;2023-09-07T07:11:32;1.13;;;1.00;;
11506;SDS011;5810;51.180;6.646;2023-09-07T07:13:57;2.17;;;0.98;;
11506;SDS011;5810;51.180;6.646;2023-09-07T07:16:23;0.80;;;0.80;;
11506;SDS011;5810;51.180;6.646;2023-09-07T07:18:49;1.48;;;0.90;;
11506;SDS011;5810;51.180;6.646;2023-09-07T07:21:15;1.08;;;0.98;;
11506;SDS011;5810;51.180;6.646;2023-09-07T07:23:41;0.88;;;0.88;;
11506;SDS011;5810;51.180;6.646;2023-09-07T07:26:07;0.88;;;0.68;;
11506;SDS011;5810;51.180;6.646;2023-09-07T07:28:34;2.67;;;0.93;;
11506;SDS011;5810;51.180;6.646;2023-09-07T07:31:06;1.05;;;1.05;;
11506;SDS011;5810;51.180;6.646;2023-09-07T07:33:33;0.75;;;0.75;;
11506;SDS011;5810;51.180;6.646;2023-09-07T07:35:59;1.33;;;1.23;;
11506;SDS011;5810;51.180;6.646;2023-09-07T07:38:25;0.73;;;0.73;;
11506;SDS011;5810;51.180;6.646;2023-09-07T07:40:51;0.80;;;0.80;;
11506;SDS011;5810;51.180;6.646;2023-09-07T07:43:18;1.30;;;1.20;;
11506;SDS011;5810;51.180;6.646;2023-09-07T07:45:44;1.10;;;1.00;;
11506;SDS011;5810;51.180;6.646;2023-09-07T07:48:10;0.85;;;0.85;;
11506;SDS011;5810;51.180;6.646;2023-09-07T07:50:39;1.40;;;1.30;;
11506;SDS011;5810;51.180;6.646;2023-09-07T07:53:05;1.40;;;1.17;;
11506;SDS011;5810;51.180;6.646;2023-09-07T07:55:35;0.82;;;0.82;;
11506;SDS011;5810;51.180;6.646;2023-09-07T07:58:04;0.65;;;0.65;;
11506;SDS011;5810;51.180;6.646;2023-09-07T08:00:30;0.80;;;0.80;;
11506;SDS011;5810;51.180;6.646;2023-09-07T08:02:56;1.58;;;1.30;;
11506;SDS011;5810;51.180;6.646;2023-09-07T08:05:22;1.45;;;1.35;;
11506;SDS011;5810;51.180;6.646;2023-09-07T08:07:48;0.77;;;0.77;;
11506;SDS011;5810;51.180;6.646;2023-09-07T08:10:18;0.82;;;0.82;;
11506;SDS011;5810;51.180;6.646;2023-09-07T08:12:44;0.75;;;0.75;;
11506;SDS011;5810;51.180;6.646;2023-09-07T08:15:10;1.50;;;1.10;;
11506;SDS011;5810;51.180;6.646;2023-09-07T08:17:36;0.52;;;0.52;;
11506;SDS011;5810;51.180;6.646;2023-09-07T08:20:02;0.98;;;0.98;;
11506;SDS011;5810;51.180;6.646;2023-09-07T08:22:28;0.82;;;0.82;;
11506;SDS011;5810;51.180;6.646;2023-09-07T08:24:54;0.85;;;0.85;;
11506;SDS011;5810;51.180;6.646;2023-09-07T08:27:21;4.07;;;1.10;;
11506;SDS011;5810;51.180;6.646;2023-09-07T08:29:47;1.10;;;1.10;;
11506;SDS011;5810;51.180;6.646;2023-09-07T08:32:16;1.25;;;1.15;;
11506;SDS011;5810;51.180;6.646;2023-09-07T08:34:42;0.75;;;0.75;;
11506;SDS011;5810;51.180;6.646;2023-09-07T08:37:08;1.58;;;1.48;;
11506;SDS011;5810;51.180;6.646;2023-09-07T08:39:34;1.00;;;1.00;;
11506;SDS011;5810;51.180;6.646;2023-09-07T08:42:01;1.13;;;1.02;;
11506;SDS011;5810;51.180;6.646;2023-09-07T08:44:28;6.45;;;1.10;;
11506;SDS011;5810;51.180;6.646;2023-09-07T08:46:55;0.77;;;0.77;;
11506;SDS011;5810;51.180;6.646;2023-09-07T08:49:21;0.80;;;0.80;;
11506;SDS011;5810;51.180;6.646;2023-09-07T08:51:48;1.20;;;1.15;;
11506;SDS011;5810;51.180;6.646;2023-09-07T08:54:14;0.70;;;0.70;;
11506;SDS011;5810;51.180;6.646;2023-09-07T08:56:40;0.80;;;0.80;;
11506;SDS011;5810;51.180;6.646;2023-09-07T08:59:06;0.95;;;0.95;;
11506;SDS011;5810;51.180;6.646;2023-09-07T09:01:33;1.48;;;1.30;;
11506;SDS011;5810;51.180;6.646;2023-09-07T09:03:59;0.73;;;0.73;;
11506;SDS011;5810;51.180;6.646;2023-09-07T09:06:25;0.90;;;0.90;;
11506;SDS011;5810;51.180;6.646;2023-09-07T09:08:53;1.00;;;1.00;;
11506;SDS011;5810;51.180;6.646;2023-09-07T09:11:19;1.85;;;1.75;;
11506;SDS011;5810;51.180;6.646;2023-09-07T09:13:46;1.55;;;1.13;;
11506;SDS011;5810;51.180;6.646;2023-09-07T09:16:12;1.10;;;1.10;;
11506;SDS011;5810;51.180;6.646;2023-09-07T09:18:47;0.70;;;0.70;;
11506;SDS011;5810;51.180;6.646;2023-09-07T09:21:14;1.35;;;1.25;;
11506;SDS011;5810;51.180;6.646;2023-09-07T09:23:41;1.77;;;1.40;;
11506;SDS011;5810;51.180;6.646;2023-09-07T09:26:07;0.93;;;0.93;;
11506;SDS011;5810;51.180;6.646;2023-09-07T09:28:33;1.08;;;1.08;;
11506;SDS011;5810;51.180;6.646;2023-09-07T09:31:01;1.45;;;1.35;;
11506;SDS011;5810;51.180;6.646;2023-09-07T09:33:30;1.58;;;1.48;;
11506;SDS011;5810;51.180;6.646;2023-09-07T09:35:57;1.40;;;1.30;;
11506;SDS011;5810;51.180;6.646;2023-09-07T09:38:23;1.75;;;1.65;;
11506;SDS011;5810;51.180;6.646;2023-09-07T09:40:49;1.05;;;1.05;;
11506;SDS011;5810;51.180;6.646;2023-09-07T09:43:16;2.50;;;1.50;;
11506;SDS011;5810;51.180;6.646;2023-09-07T09:45:42;1.80;;;1.38;;
11506;SDS011;5810;51.180;6.646;2023-09-07T09:48:08;1.20;;;1.10;;
11506;SDS011;5810;51.180;6.646;2023-09-07T09:50:34;2.30;;;1.58;;
11506;SDS011;5810;51.180;6.646;2023-09-07T09:53:04;2.45;;;1.58;;
11506;SDS011;5810;51.180;6.646;2023-09-07T09:55:32;1.88;;;1.60;;
11506;SDS011;5810;51.180;6.646;2023-09-07T09:57:58;1.52;;;1.40;;
11506;SDS011;5810;51.180;6.646;2023-09-07T10:00:24;1.30;;;1.30;;
11506;SDS011;5810;51.180;6.646;2023-09-07T10:03:14;1.52;;;1.50;;
11506;SDS011;5810;51.180;6.646;2023-09-07T10:05:43;1.65;;;1.55;;
11506;SDS011;5810;51.180;6.646;2023-09-07T10:08:11;2.38;;;2.17;;
11506;SDS011;5810;51.180;6.646;2023-09-07T10:10:38;1.50;;;1.40;;
11506;SDS011;5810;51.180;6.646;2023-09-07T10:13:05;2.72;;;2.17;;
11506;SDS011;5810;51.180;6.646;2023-09-07T10:15:31;1.52;;;1.42;;
11506;SDS011;5810;51.180;6.646;2023-09-07T10:20:55;5.70;;;1.48;;
11506;SDS011;5810;51.180;6.646;2023-09-07T10:23:23;1.90;;;1.77;;
11506;SDS011;5810;51.180;6.646;2023-09-07T10:26:00;1.98;;;1.83;;
11506;SDS011;5810;51.180;6.646;2023-09-07T10:28:26;1.50;;;1.40;;
11506;SDS011;5810;51.180;6.646;2023-09-07T10:30:59;1.60;;;1.50;;
11506;SDS011;5810;51.180;6.646;2023-09-07T10:33:25;2.50;;;1.65;;
11506;SDS011;5810;51.180;6.646;2023-09-07T10:35:51;1.65;;;1.55;;
11506;SDS011;5810;51.180;6.646;2023-09-07T10:38:17;1.77;;;1.67;;
11506;SDS011;5810;51.180;6.646;2023-09-07T10:40:44;2.45;;;1.90;;
11506;SDS011;5810;51.180;6.646;2023-09-07T10:43:10;7.55;;;2.45;;
11506;SDS011;5810;51.180;6.646;2023-09-07T10:45:36;1.50;;;1.40;;
11506;SDS011;5810;51.180;6.646;2023-09-07T10:48:02;1.67;;;1.58;;
11506;SDS011;5810;51.180;6.646;2023-09-07T10:50:29;1.75;;;1.55;;
11506;SDS011;5810;51.180;6.646;2023-09-07T10:52:55;1.70;;;1.58;;
11506;SDS011;5810;51.180;6.646;2023-09-07T10:55:21;2.97;;;1.85;;
11506;SDS011;5810;51.180;6.646;2023-09-07T10:57:47;2.00;;;1.90;;
11506;SDS011;5810;51.180;6.646;2023-09-07T11:00:13;1.85;;;1.70;;
11506;SDS011;5810;51.180;6.646;2023-09-07T11:02:43;1.73;;;1.63;;
11506;SDS011;5810;51.180;6.646;2023-09-07T11:05:09;1.30;;;1.30;;
11506;SDS011;5810;51.180;6.646;2023-09-07T11:07:35;1.70;;;1.60;;
11506;SDS011;5810;51.180;6.646;2023-09-07T11:10:04;3.72;;;1.73;;
11506;SDS011;5810;51.180;6.646;2023-09-07T11:12:35;3.50;;;1.90;;
11506;SDS011;5810;51.180;6.646;2023-09-07T11:15:02;2.05;;;1.85;;
11506;SDS011;5810;51.180;6.646;2023-09-07T11:17:29;1.88;;;1.48;;
11506;SDS011;5810;51.180;6.646;2023-09-07T11:19:55;2.22;;;1.95;;
11506;SDS011;5810;51.180;6.646;2023-09-07T11:22:21;3.63;;;1.45;;
11506;SDS011;5810;51.180;6.646;2023-09-07T11:24:48;2.17;;;1.98;;
11506;SDS011;5810;51.180;6.646;2023-09-07T11:27:16;1.70;;;1.60;;
11506;SDS011;5810;51.180;6.646;2023-09-07T11:29:49;1.67;;;1.58;;
11506;SDS011;5810;51.180;6.646;2023-09-07T11:32:16;2.13;;;1.92;;
11506;SDS011;5810;51.180;6.646;2023-09-07T11:34:47;2.28;;;2.08;;
11506;SDS011;5810;51.180;6.646;2023-09-07T11:37:14;2.13;;;1.92;;
11506;SDS011;5810;51.180;6.646;2023-09-07T11:39:40;2.20;;;1.95;;
11506;SDS011;5810;51.180;6.646;2023-09-07T11:42:06;1.50;;;1.40;;
11506;SDS011;5810;51.180;6.646;2023-09-07T11:44:32;2.47;;;2.00;;
11506;SDS011;5810;51.180;6.646;2023-09-07T11:46:58;2.67;;;1.60;;
11506;SDS011;5810;51.180;6.646;2023-09-07T11:49:24;1.90;;;1.73;;
11506;SDS011;5810;51.180;6.646;2023-09-07T11:51:50;2.70;;;1.63;;
11506;SDS011;5810;51.180;6.646;2023-09-07T11:54:16;1.65;;;1.55;;
11506;SDS011;5810;51.180;6.646;2023-09-07T11:56:42;3.13;;;1.73;;
11506;SDS011;5810;51.180;6.646;2023-09-07T11:59:10;1.80;;;1.70;;
11506;SDS011;5810;51.180;6.646;2023-09-07T12:01:36;1.63;;;1.52;;
11506;SDS011;5810;51.180;6.646;2023-09-07T12:04:04;1.70;;;1.60;;
11506;SDS011;5810;51.180;6.646;2023-09-07T12:06:30;2.42;;;1.88;;
11506;SDS011;5810;51.180;6.646;2023-09-07T12:11:25;1.98;;;1.88;;
11506;SDS011;5810;51.180;6.646;2023-09-07T12:13:52;3.83;;;1.85;;
11506;SDS011;5810;51.180;6.646;2023-09-07T12:16:18;1.85;;;1.75;;
11506;SDS011;5810;51.180;6.646;2023-09-07T12:18:44;13.45;;;2.60;;
11506;SDS011;5810;51.180;6.646;2023-09-07T12:21:10;2.00;;;1.80;;
11506;SDS011;5810;51.180;6.646;2023-09-07T12:23:36;1.95;;;1.85;;
11506;SDS011;5810;51.180;6.646;2023-09-07T12:26:01;1.85;;;1.75;;
11506;SDS011;5810;51.180;6.646;2023-09-07T12:28:29;1.75;;;1.65;;
11506;SDS011;5810;51.180;6.646;2023-09-07T12:30:56;1.70;;;1.60;;
11506;SDS011;5810;51.180;6.646;2023-09-07T12:33:23;2.15;;;1.90;;
11506;SDS011;5810;51.180;6.646;2023-09-07T12:35:49;4.93;;;2.00;;
11506;SDS011;5810;51.180;6.646;2023-09-07T12:38:15;3.78;;;2.13;;
11506;SDS011;5810;51.180;6.646;2023-09-07T12:40:46;1.67;;;1.58;;
11506;SDS011;5810;51.180;6.646;2023-09-07T12:43:12;3.13;;;2.00;;
11506;SDS011;5810;51.180;6.646;2023-09-07T12:45:38;4.70;;;2.63;;
11506;SDS011;5810;51.180;6.646;2023-09-07T12:48:04;2.55;;;2.05;;
11506;SDS011;5810;51.180;6.646;2023-09-07T12:50:31;1.85;;;1.75;;
11506;SDS011;5810;51.180;6.646;2023-09-07T12:52:57;2.85;;;1.88;;
11506;SDS011;5810;51.180;6.646;2023-09-07T12:55:23;3.97;;;1.73;;
11506;SDS011;5810;51.180;6.646;2023-09-07T12:57:49;2.17;;;1.80;;
11506;SDS011;5810;51.180;6.646;2023-09-07T13:00:15;5.97;;;1.98;;
11506;SDS011;5810;51.180;6.646;2023-09-07T13:02:41;2.22;;;2.03;;
11506;SDS011;5810;51.180;6.646;2023-09-07T13:05:07;4.10;;;1.92;;
11506;SDS011;5810;51.180;6.646;2023-09-07T13:07:33;1.60;;;1.50;;
11506;SDS011;5810;51.180;6.646;2023-09-07T13:10:00;1.88;;;1.77;;
11506;SDS011;5810;51.180;6.646;2023-09-07T13:12:30;2.10;;;1.60;;
11506;SDS011;5810;51.180;6.646;2023-09-07T13:14:57;2.33;;;2.10;;
11506;SDS011;5810;51.180;6.646;2023-09-07T13:17:23;2.08;;;1.98;;
11506;SDS011;5810;51.180;6.646;2023-09-07T13:19:49;2.28;;;1.92;;
11506;SDS011;5810;51.180;6.646;2023-09-07T13:22:16;1.50;;;1.40;;
11506;SDS011;5810;51.180;6.646;2023-09-07T13:24:42;3.10;;;1.98;;
11506;SDS011;5810;51.180;6.646;2023-09-07T13:27:08;2.17;;;1.77;;
11506;SDS011;5810;51.180;6.646;2023-09-07T13:29:35;1.80;;;1.70;;
11506;SDS011;5810;51.180;6.646;2023-09-07T13:32:01;4.07;;;1.83;;
11506;SDS011;5810;51.180;6.646;2023-09-07T13:34:27;1.90;;;1.80;;
11506;SDS011;5810;51.180;6.646;2023-09-07T13:36:53;1.95;;;1.58;;
11506;SDS011;5810;51.180;6.646;2023-09-07T13:39:20;1.90;;;1.80;;
11506;SDS011;5810;51.180;6.646;2023-09-07T13:41:45;2.17;;;1.98;;
11506;SDS011;5810;51.180;6.646;2023-09-07T13:44:13;2.10;;;1.88;;
11506;SDS011;5810;51.180;6.646;2023-09-07T13:46:39;1.92;;;1.73;;
11506;SDS011;5810;51.180;6.646;2023-09-07T13:49:05;2.90;;;1.70;;
11506;SDS011;5810;51.180;6.646;2023-09-07T13:51:31;3.28;;;2.30;;
11506;SDS011;5810;51.180;6.646;2023-09-07T13:54:03;4.93;;;2.03;;
11506;SDS011;5810;51.180;6.646;2023-09-07T13:56:29;1.90;;;1.80;;
11506;SDS011;5810;51.180;6.646;2023-09-07T13:58:55;1.80;;;1.70;;
11506;SDS011;5810;51.180;6.646;2023-09-07T14:01:21;1.80;;;1.70;;
11506;SDS011;5810;51.180;6.646;2023-09-07T14:03:48;1.92;;;1.83;;
11506;SDS011;5810;51.180;6.646;2023-09-07T14:06:14;3.47;;;1.92;;
11506;SDS011;5810;51.180;6.646;2023-09-07T14:08:42;1.80;;;1.70;;
11506;SDS011;5810;51.180;6.646;2023-09-07T14:11:08;1.50;;;1.40;;
11506;SDS011;5810;51.180;6.646;2023-09-07T14:13:34;1.85;;;1.70;;
11506;SDS011;5810;51.180;6.646;2023-09-07T14:16:01;1.70;;;1.60;;
11506;SDS011;5810;51.180;6.646;2023-09-07T14:18:27;2.45;;;1.92;;
11506;SDS011;5810;51.180;6.646;2023-09-07T14:20:54;1.42;;;1.35;;
11506;SDS011;5810;51.180;6.646;2023-09-07T14:23:23;2.00;;;1.88;;
11506;SDS011;5810;51.180;6.646;2023-09-07T14:25:50;2.15;;;1.80;;
11506;SDS011;5810;51.180;6.646;2023-09-07T14:28:16;1.60;;;1.50;;
11506;SDS011;5810;51.180;6.646;2023-09-07T14:30:42;1.75;;;1.65;;
11506;SDS011;5810;51.180;6.646;2023-09-07T14:33:08;9.05;;;2.42;;
11506;SDS011;5810;51.180;6.646;2023-09-07T14:35:34;1.80;;;1.70;;
11506;SDS011;5810;51.180;6.646;2023-09-07T14:38:00;2.05;;;1.90;;
11506;SDS011;5810;51.180;6.646;2023-09-07T14:40:26;1.77;;;1.67;;
11506;SDS011;5810;51.180;6.646;2023-09-07T14:42:53;2.65;;;2.25;;
11506;SDS011;5810;51.180;6.646;2023-09-07T14:45:19;1.88;;;1.77;;
11506;SDS011;5810;51.180;6.646;2023-09-07T14:47:45;1.83;;;1.52;;
11506;SDS011;5810;51.180;6.646;2023-09-07T14:50:11;1.95;;;1.80;;
11506;SDS011;5810;51.180;6.646;2023-09-07T14:52:37;1.67;;;1.58;;
11506;SDS011;5810;51.180;6.646;2023-09-07T14:55:07;2.13;;;1.80;;
11506;SDS011;5810;51.180;6.646;2023-09-07T14:57:33;2.10;;;1.90;;
11506;SDS011;5810;51.180;6.646;2023-09-07T15:00:00;1.90;;;1.63;;
11506;SDS011;5810;51.180;6.646;2023-09-07T15:02:26;1.75;;;1.65;;